Argo B — V7TY5 — position and weather

sailwx.info

Track history (hours):
 
Tides and Currents Weather Stations Pressure Air Temp Water Temp Dewpoint Dewpoint Depression Visibility Wind Speed Wind Dir Waves Ship Positions

Argo B

Last reported at 2017-Nov-16 22:16 UTC. Time now 2017-Nov-20 17:33 UTC.
Position N 36°33' E 014°06'.

Length 180 m; draft 10.7 m.

Type: Cargo ship. MMSI: 538003906.

Date/timePositionNaut miles runAvg speedWind from/ knotsBaromVisibWave heightAir tempDewpointWater temp
2017-Nov-16 22:16N 36°33' E 014°06'410.2
2017-Nov-16 21:55N 36°32' E 014°11'510.2
2017-Nov-16 21:27N 36°30' E 014°16'510.1
2017-Nov-16 21:00N 36°29' E 014°21'5 9.9
2017-Nov-16 20:30N 36°27' E 014°27'5 9.8
2017-Nov-16 20:00N 36°26' E 014°33'5 9.8
2017-Nov-16 19:30N 36°25' E 014°39'435 9.7
2017-Nov-14 22:25N 37°16' E 023°39'1910.5
2017-Nov-14 20:39N 37°35' E 023°44'210.3
2017-Nov-14 20:30N 37°36' E 023°44'510.4
2017-Nov-14 20:00N 37°41' E 023°42'510.5
2017-Nov-14 19:30N 37°46' E 023°39'510.0
2017-Nov-14 19:00N 37°50' E 023°35'3 6.4
2017-Nov-14 18:30N 37°51' E 023°31'0 0.1
2017-Nov-14 17:58N 37°51' E 023°32'0 0.0
2017-Nov-14 17:28N 37°51' E 023°32'0 0.0
2017-Nov-14 16:58N 37°51' E 023°32'0 0.0
2017-Nov-14 16:28N 37°51' E 023°32'0 0.1
2017-Nov-14 15:58N 37°51' E 023°32'0 0.0
2017-Nov-14 15:28N 37°51' E 023°32'0 0.1
2017-Nov-14 14:58N 37°51' E 023°32'0 0.0
2017-Nov-14 14:28N 37°51' E 023°32'0 0.0
2017-Nov-14 13:58N 37°51' E 023°32'0 0.0
2017-Nov-14 13:28N 37°51' E 023°32'0 0.0
2017-Nov-14 12:58N 37°51' E 023°32'0 0.0
2017-Nov-14 12:22N 37°51' E 023°32'0 0.0
2017-Nov-14 11:58N 37°51' E 023°32'0 0.2
2017-Nov-14 11:28N 37°51' E 023°31'0 0.1
2017-Nov-14 10:58N 37°51' E 023°32'0 0.1
2017-Nov-14 10:28N 37°51' E 023°32'0 0.0
2017-Nov-14 09:58N 37°51' E 023°32'0 0.0
2017-Nov-14 09:28N 37°51' E 023°32'0 0.0
2017-Nov-14 08:58N 37°51' E 023°32'0 0.0
2017-Nov-14 08:28N 37°51' E 023°32'0 0.0
2017-Nov-14 07:58N 37°51' E 023°32'0 0.0
2017-Nov-14 07:28N 37°51' E 023°32'0 0.0
2017-Nov-14 06:58N 37°51' E 023°32'0 0.0
2017-Nov-14 06:28N 37°51' E 023°32'0 0.1
2017-Nov-14 05:58N 37°51' E 023°32'0 0.1
2017-Nov-14 05:28N 37°51' E 023°32'0 0.2
2017-Nov-14 05:00N 37°51' E 023°32'1 1.3
2017-Nov-14 04:30N 37°51' E 023°31'0 0.9
2017-Nov-14 04:00N 37°50' E 023°31'2 3.5
2017-Nov-14 03:30N 37°51' E 023°33'2 4.8
2017-Nov-14 03:00N 37°51' E 023°36'4 8.1
2017-Nov-14 02:30N 37°49' E 023°41'611.3
2017-Nov-14 02:00N 37°44' E 023°44'510.1
2017-Nov-14 01:30N 37°39' E 023°47'  
2017-Nov-11 21:25N 43°19' E 028°54'511.3
2017-Nov-11 21:00N 43°23' E 028°53'611.3
2017-Nov-11 20:31N 43°29' E 028°52'611.0
2017-Nov-11 20:01N 43°34' E 028°52'611.0
2017-Nov-11 19:30N 43°40' E 028°51'611.2
2017-Nov-11 19:00N 43°46' E 028°51'511.0
2017-Nov-11 18:30N 43°51' E 028°50'511.0
2017-Nov-11 18:01N 43°56' E 028°49'510.6
2017-Nov-11 17:30N 44°01' E 028°46'510.5
2017-Nov-11 17:01N 44°06' E 028°42'3 6.3
2017-Nov-11 16:31N 44°09' E 028°40'1 2.1
2017-Nov-11 15:59N 44°09' E 028°39'0 0.2
2017-Nov-11 15:29N 44°09' E 028°39'0 0.0
2017-Nov-11 14:59N 44°09' E 028°39'0 0.0
2017-Nov-11 14:29N 44°09' E 028°39'0 0.0
2017-Nov-11 13:59N 44°09' E 028°39'0 0.0
2017-Nov-11 13:29N 44°09' E 028°39'0 0.0
2017-Nov-11 12:59N 44°09' E 028°39'0 0.0
2017-Nov-11 12:29N 44°09' E 028°39'0 0.0
2017-Nov-11 11:59N 44°09' E 028°39'0 0.0
2017-Nov-11 11:29N 44°09' E 028°39'0 0.0
2017-Nov-11 10:59N 44°09' E 028°39'0 0.0
2017-Nov-11 10:29N 44°09' E 028°39'0 0.0
2017-Nov-11 09:59N 44°09' E 028°39'0 0.0
2017-Nov-11 09:29N 44°09' E 028°39'0 0.0
2017-Nov-11 08:59N 44°09' E 028°39'0 0.0
2017-Nov-11 08:29N 44°09' E 028°39'0 0.0
2017-Nov-11 07:59N 44°09' E 028°39'0 0.0
2017-Nov-11 07:29N 44°09' E 028°39'0 0.0
2017-Nov-11 06:59N 44°09' E 028°39'0 0.0
2017-Nov-11 06:29N 44°09' E 028°39'0 0.0
2017-Nov-11 05:59N 44°09' E 028°39'0 0.0
2017-Nov-11 05:29N 44°09' E 028°39'0 0.0
2017-Nov-11 04:59N 44°09' E 028°39'0 0.0
2017-Nov-11 04:29N 44°09' E 028°39'0 0.0
2017-Nov-11 03:59N 44°09' E 028°39'0 0.0
2017-Nov-11 03:29N 44°09' E 028°39'0 0.0
2017-Nov-11 02:59N 44°09' E 028°39'0 0.0
2017-Nov-11 02:29N 44°09' E 028°39'0 0.0
2017-Nov-11 01:59N 44°09' E 028°39'0 0.0
2017-Nov-11 01:29N 44°09' E 028°39'0 0.0
2017-Nov-11 00:59N 44°09' E 028°39'0 0.0
2017-Nov-11 00:29N 44°09' E 028°39'0 0.0
2017-Nov-10 23:59N 44°09' E 028°39'0 0.0
2017-Nov-10 23:29N 44°09' E 028°39'0 0.0
2017-Nov-10 22:59N 44°09' E 028°39'0 0.0
2017-Nov-10 22:29N 44°09' E 028°39'0 0.0
2017-Nov-10 21:59N 44°09' E 028°39'0 0.0
2017-Nov-10 21:29N 44°09' E 028°39'0 0.0
2017-Nov-10 20:59N 44°09' E 028°39'0 0.0
2017-Nov-10 20:29N 44°09' E 028°39'0 0.0
2017-Nov-10 19:59N 44°09' E 028°39'0 0.0
2017-Nov-10 19:29N 44°09' E 028°39'0 0.0
2017-Nov-10 18:59N 44°09' E 028°39'0 0.0
2017-Nov-10 18:29N 44°09' E 028°39'0 0.0
2017-Nov-10 17:59N 44°09' E 028°39'0 0.0
2017-Nov-10 17:29N 44°09' E 028°39'0 0.0
2017-Nov-10 16:59N 44°09' E 028°39'0 0.0
2017-Nov-10 16:29N 44°09' E 028°39'0 0.0
2017-Nov-10 15:59N 44°09' E 028°39'0 0.0
2017-Nov-10 15:26N 44°09' E 028°39'0 0.0
2017-Nov-10 14:59N 44°09' E 028°39'0 0.0
2017-Nov-10 14:29N 44°09' E 028°39'0 0.0
2017-Nov-10 13:59N 44°09' E 028°39'0 0.0
2017-Nov-10 13:29N 44°09' E 028°39'0 0.0
2017-Nov-10 12:59N 44°09' E 028°39'0 0.0
2017-Nov-10 12:29N 44°09' E 028°39'0 0.0
2017-Nov-10 11:59N 44°09' E 028°39'0 0.0
2017-Nov-10 11:29N 44°09' E 028°39'0 0.0
2017-Nov-10 10:59N 44°09' E 028°39'0 0.0
2017-Nov-10 10:23N 44°09' E 028°39'0 0.0
2017-Nov-10 09:59N 44°09' E 028°39'0 0.0
2017-Nov-10 09:29N 44°09' E 028°39'0 0.0
2017-Nov-10 08:59N 44°09' E 028°39'0 0.0
2017-Nov-10 08:29N 44°09' E 028°39'0 0.0
2017-Nov-10 07:59N 44°09' E 028°39'0 0.0
2017-Nov-10 07:29N 44°09' E 028°39'0 0.0
2017-Nov-10 06:59N 44°09' E 028°39'0 0.0
2017-Nov-10 06:29N 44°09' E 028°39'0 0.0
2017-Nov-10 05:59N 44°09' E 028°39'0 0.0
2017-Nov-10 05:29N 44°09' E 028°39'0 0.0
2017-Nov-10 04:59N 44°09' E 028°39'0 0.0
2017-Nov-10 04:29N 44°09' E 028°39'0 0.0
2017-Nov-10 03:59N 44°09' E 028°39'0 0.0
2017-Nov-10 03:29N 44°09' E 028°39'0 0.0
2017-Nov-10 02:59N 44°09' E 028°39'0 0.0
2017-Nov-10 02:26N 44°09' E 028°39'0 0.0
2017-Nov-10 01:59N 44°09' E 028°39'0 0.0
2017-Nov-10 01:29N 44°09' E 028°39'0 0.0
2017-Nov-10 00:59N 44°09' E 028°39'0 0.0
2017-Nov-10 00:29N 44°09' E 028°39'0 0.0
2017-Nov-09 23:59N 44°09' E 028°39'0 0.0
2017-Nov-09 23:29N 44°09' E 028°39'0 0.0
2017-Nov-09 22:59N 44°09' E 028°39'0 0.0
2017-Nov-09 22:29N 44°09' E 028°39'0 0.0
2017-Nov-09 21:59N 44°09' E 028°39'0 0.0
2017-Nov-09 21:29N 44°09' E 028°39'0 0.0
2017-Nov-09 20:59N 44°09' E 028°39'0 0.0
2017-Nov-09 20:29N 44°09' E 028°39'0 0.0
2017-Nov-09 19:59N 44°09' E 028°39'0 0.0
2017-Nov-09 19:29N 44°09' E 028°39'0 0.0
2017-Nov-09 18:59N 44°09' E 028°39'0 0.0
2017-Nov-09 18:29N 44°09' E 028°39'0 0.0
2017-Nov-09 17:59N 44°09' E 028°39'0 0.0
2017-Nov-09 17:29N 44°09' E 028°39'0 0.0
2017-Nov-09 16:59N 44°09' E 028°39'0 0.0
2017-Nov-09 16:29N 44°09' E 028°39'0 0.0
2017-Nov-09 15:59N 44°09' E 028°39'0 0.0
2017-Nov-09 15:29N 44°09' E 028°39'0 0.0
2017-Nov-09 14:59N 44°09' E 028°39'0 0.0
2017-Nov-09 14:29N 44°09' E 028°39'0 0.0
2017-Nov-09 13:59N 44°09' E 028°39'0 0.0
2017-Nov-09 13:29N 44°09' E 028°39'0 0.0
2017-Nov-09 12:59N 44°09' E 028°39'0 0.0
2017-Nov-09 12:29N 44°09' E 028°39'0 0.0
2017-Nov-09 11:59N 44°09' E 028°39'0 0.0
2017-Nov-09 11:29N 44°09' E 028°39'0 0.0
2017-Nov-09 10:59N 44°09' E 028°39'0 0.0
2017-Nov-09 10:29N 44°09' E 028°39'0 0.0
2017-Nov-09 09:59N 44°09' E 028°39'0 0.0
2017-Nov-09 09:29N 44°09' E 028°39'0 0.0
2017-Nov-09 08:59N 44°09' E 028°39'0 0.0
2017-Nov-09 08:29N 44°09' E 028°39'0 0.0
2017-Nov-09 07:59N 44°09' E 028°39'0 0.0
2017-Nov-09 07:29N 44°09' E 028°39'0 0.0
2017-Nov-09 06:59N 44°09' E 028°39'0 0.0
2017-Nov-09 06:29N 44°09' E 028°39'0 0.0
2017-Nov-09 05:59N 44°09' E 028°39'0 0.0
2017-Nov-09 05:29N 44°09' E 028°39'0 0.0
2017-Nov-09 04:59N 44°09' E 028°39'0 0.0
2017-Nov-09 04:29N 44°09' E 028°39'0 0.0
2017-Nov-09 03:59N 44°09' E 028°39'0 0.0
2017-Nov-09 03:29N 44°09' E 028°39'0 0.0
2017-Nov-09 02:59N 44°09' E 028°39'0 0.0
2017-Nov-09 02:29N 44°09' E 028°39'0 0.0
2017-Nov-09 01:59N 44°09' E 028°39'0 0.0
2017-Nov-09 01:29N 44°09' E 028°39'0 0.0
2017-Nov-09 00:59N 44°09' E 028°39'0 0.0
2017-Nov-09 00:29N 44°09' E 028°39'0 0.0
2017-Nov-08 23:59N 44°09' E 028°39'0 0.0
2017-Nov-08 23:29N 44°09' E 028°39'0 0.0
2017-Nov-08 22:59N 44°09' E 028°39'0 0.0
2017-Nov-08 22:29N 44°09' E 028°39'0 0.0
2017-Nov-08 21:59N 44°09' E 028°39'0 0.0
2017-Nov-08 21:29N 44°09' E 028°39'0 0.0
2017-Nov-08 20:59N 44°09' E 028°39'0 0.0
2017-Nov-08 20:29N 44°09' E 028°39'0 0.0
2017-Nov-08 19:59N 44°09' E 028°39'0 0.0
2017-Nov-08 19:29N 44°09' E 028°39'0 0.0
2017-Nov-08 18:59N 44°09' E 028°39'0 0.0
2017-Nov-08 18:29N 44°09' E 028°39'0 0.0
2017-Nov-08 17:59N 44°09' E 028°39'0 0.0
2017-Nov-08 17:26N 44°09' E 028°39'0 0.0
2017-Nov-08 16:59N 44°09' E 028°39'0 0.0
2017-Nov-08 16:29N 44°09' E 028°39'0 0.0
2017-Nov-08 15:59N 44°09' E 028°39'0 0.0
2017-Nov-08 15:29N 44°09' E 028°39'0 0.0
2017-Nov-08 14:59N 44°09' E 028°39'0 0.0
2017-Nov-08 14:29N 44°09' E 028°39'0 0.0
2017-Nov-08 13:59N 44°09' E 028°39'0 0.0
2017-Nov-08 13:29N 44°09' E 028°39'0 0.0
2017-Nov-08 12:59N 44°09' E 028°39'0 0.0
2017-Nov-08 12:29N 44°09' E 028°39'0 0.0
2017-Nov-08 11:59N 44°09' E 028°39'0 0.0
2017-Nov-08 11:29N 44°09' E 028°39'0 0.0
2017-Nov-08 10:59N 44°09' E 028°39'0 0.0
2017-Nov-08 10:29N 44°09' E 028°39'0 0.0
2017-Nov-08 09:59N 44°09' E 028°39'0 0.0
2017-Nov-08 09:29N 44°09' E 028°39'0 0.0
2017-Nov-08 08:58N 44°09' E 028°39'0 0.0
2017-Nov-08 08:28N 44°09' E 028°39'0 0.0
2017-Nov-08 07:58N 44°09' E 028°39'0 0.0
2017-Nov-08 07:28N 44°09' E 028°39'0 0.0
2017-Nov-08 06:55N 44°09' E 028°39'0 0.0
2017-Nov-08 06:28N 44°09' E 028°39'0 0.0
2017-Nov-08 05:58N 44°09' E 028°39'0 0.0
2017-Nov-08 05:28N 44°09' E 028°39'0 0.0
2017-Nov-08 04:58N 44°09' E 028°39'0 0.0
2017-Nov-08 04:28N 44°09' E 028°39'0 0.0
2017-Nov-08 03:58N 44°09' E 028°39'0 0.0
2017-Nov-08 03:28N 44°09' E 028°39'0 0.0
2017-Nov-08 02:58N 44°09' E 028°39'0 0.0
2017-Nov-08 02:28N 44°09' E 028°39'0 0.0
2017-Nov-08 01:58N 44°09' E 028°39'0 0.0
2017-Nov-08 01:22N 44°09' E 028°39'0 0.0
2017-Nov-08 00:58N 44°09' E 028°39'0 0.0
2017-Nov-08 00:28N 44°09' E 028°39'0 0.0
2017-Nov-07 23:55N 44°09' E 028°39'0 0.0
2017-Nov-07 23:28N 44°09' E 028°39'0 0.0
2017-Nov-07 22:55N 44°09' E 028°39'0 0.0
2017-Nov-07 22:28N 44°09' E 028°39'0 0.0
2017-Nov-07 21:58N 44°09' E 028°39'0 0.0
2017-Nov-07 21:28N 44°09' E 028°39'0 0.0
2017-Nov-07 20:58N 44°09' E 028°39'0 0.0
2017-Nov-07 20:28N 44°09' E 028°39'0 0.0
2017-Nov-07 19:58N 44°09' E 028°39'0 0.0
2017-Nov-07 19:28N 44°09' E 028°39'0 0.0
2017-Nov-07 18:58N 44°09' E 028°39'0 0.0
2017-Nov-07 18:28N 44°09' E 028°39'0 0.0
2017-Nov-07 17:58N 44°09' E 028°39'0 0.0
2017-Nov-07 17:28N 44°09' E 028°39'0 0.0
2017-Nov-07 16:58N 44°09' E 028°39'0 0.0
2017-Nov-07 16:28N 44°09' E 028°39'0 0.0
2017-Nov-07 15:58N 44°09' E 028°39'0 0.0
2017-Nov-07 15:25N 44°09' E 028°39'0 0.0
2017-Nov-07 14:58N 44°09' E 028°39'0 0.0
2017-Nov-07 14:28N 44°09' E 028°39'0 0.8
2017-Nov-07 14:00N 44°09' E 028°39'2 3.9
2017-Nov-07 13:31N 44°08' E 028°41'3 5.7
2017-Nov-07 13:00N 44°05' E 028°43'3 5.5
2017-Nov-07 12:31N 44°03' E 028°46'3 6.9
2017-Nov-07 12:00N 44°01' E 028°49'611.6
2017-Nov-07 11:31N 43°55' E 028°52'612.3
2017-Nov-07 11:01N 43°49' E 028°52'612.2
2017-Nov-07 10:31N 43°43' E 028°53'611.9
2017-Nov-07 10:00N 43°37' E 028°54'  
Track history (hours):
 
Tides and Currents Weather Stations Pressure Air Temp Water Temp Dewpoint Dewpoint Depression Visibility Wind Speed Wind Dir Waves Ship Positions

Argo B

Last reported at 2017-Nov-16 22:16 UTC. Time now 2017-Nov-20 17:33 UTC.
Position N 36°33' E 014°06'.

Length 180 m; draft 10.7 m.

Type: Cargo ship. MMSI: 538003906.

Date/timePositionNaut miles runAvg speedWind from/ knotsBaromVisibWave heightAir tempDewpointWater temp
2017-Nov-16 22:16N 36°33' E 014°06'410.2
2017-Nov-16 21:55N 36°32' E 014°11'510.2
2017-Nov-16 21:27N 36°30' E 014°16'510.1
2017-Nov-16 21:00N 36°29' E 014°21'5 9.9
2017-Nov-16 20:30N 36°27' E 014°27'5 9.8
2017-Nov-16 20:00N 36°26' E 014°33'5 9.8
2017-Nov-16 19:30N 36°25' E 014°39'435 9.7
2017-Nov-14 22:25N 37°16' E 023°39'1910.5
2017-Nov-14 20:39N 37°35' E 023°44'210.3
2017-Nov-14 20:30N 37°36' E 023°44'510.4
2017-Nov-14 20:00N 37°41' E 023°42'510.5
2017-Nov-14 19:30N 37°46' E 023°39'510.0
2017-Nov-14 19:00N 37°50' E 023°35'3 6.4
2017-Nov-14 18:30N 37°51' E 023°31'0 0.1
2017-Nov-14 17:58N 37°51' E 023°32'0 0.0
2017-Nov-14 17:28N 37°51' E 023°32'0 0.0
2017-Nov-14 16:58N 37°51' E 023°32'0 0.0
2017-Nov-14 16:28N 37°51' E 023°32'0 0.1
2017-Nov-14 15:58N 37°51' E 023°32'0 0.0
2017-Nov-14 15:28N 37°51' E 023°32'0 0.1
2017-Nov-14 14:58N 37°51' E 023°32'0 0.0
2017-Nov-14 14:28N 37°51' E 023°32'0 0.0
2017-Nov-14 13:58N 37°51' E 023°32'0 0.0
2017-Nov-14 13:28N 37°51' E 023°32'0 0.0
2017-Nov-14 12:58N 37°51' E 023°32'0 0.0
2017-Nov-14 12:22N 37°51' E 023°32'0 0.0
2017-Nov-14 11:58N 37°51' E 023°32'0 0.2
2017-Nov-14 11:28N 37°51' E 023°31'0 0.1
2017-Nov-14 10:58N 37°51' E 023°32'0 0.1
2017-Nov-14 10:28N 37°51' E 023°32'0 0.0
2017-Nov-14 09:58N 37°51' E 023°32'0 0.0
2017-Nov-14 09:28N 37°51' E 023°32'0 0.0
2017-Nov-14 08:58N 37°51' E 023°32'0 0.0
2017-Nov-14 08:28N 37°51' E 023°32'0 0.0
2017-Nov-14 07:58N 37°51' E 023°32'0 0.0
2017-Nov-14 07:28N 37°51' E 023°32'0 0.0
2017-Nov-14 06:58N 37°51' E 023°32'0 0.0
2017-Nov-14 06:28N 37°51' E 023°32'0 0.1
2017-Nov-14 05:58N 37°51' E 023°32'0 0.1
2017-Nov-14 05:28N 37°51' E 023°32'0 0.2
2017-Nov-14 05:00N 37°51' E 023°32'1 1.3
2017-Nov-14 04:30N 37°51' E 023°31'0 0.9
2017-Nov-14 04:00N 37°50' E 023°31'2 3.5
2017-Nov-14 03:30N 37°51' E 023°33'2 4.8
2017-Nov-14 03:00N 37°51' E 023°36'4 8.1
2017-Nov-14 02:30N 37°49' E 023°41'611.3
2017-Nov-14 02:00N 37°44' E 023°44'510.1
2017-Nov-14 01:30N 37°39' E 023°47'  
2017-Nov-11 21:25N 43°19' E 028°54'511.3
2017-Nov-11 21:00N 43°23' E 028°53'611.3
2017-Nov-11 20:31N 43°29' E 028°52'611.0
2017-Nov-11 20:01N 43°34' E 028°52'611.0
2017-Nov-11 19:30N 43°40' E 028°51'611.2
2017-Nov-11 19:00N 43°46' E 028°51'511.0
2017-Nov-11 18:30N 43°51' E 028°50'511.0
2017-Nov-11 18:01N 43°56' E 028°49'510.6
2017-Nov-11 17:30N 44°01' E 028°46'510.5
2017-Nov-11 17:01N 44°06' E 028°42'3 6.3
2017-Nov-11 16:31N 44°09' E 028°40'1 2.1
2017-Nov-11 15:59N 44°09' E 028°39'0 0.2
2017-Nov-11 15:29N 44°09' E 028°39'0 0.0
2017-Nov-11 14:59N 44°09' E 028°39'0 0.0
2017-Nov-11 14:29N 44°09' E 028°39'0 0.0
2017-Nov-11 13:59N 44°09' E 028°39'0 0.0
2017-Nov-11 13:29N 44°09' E 028°39'0 0.0
2017-Nov-11 12:59N 44°09' E 028°39'0 0.0
2017-Nov-11 12:29N 44°09' E 028°39'0 0.0
2017-Nov-11 11:59N 44°09' E 028°39'0 0.0
2017-Nov-11 11:29N 44°09' E 028°39'0 0.0
2017-Nov-11 10:59N 44°09' E 028°39'0 0.0
2017-Nov-11 10:29N 44°09' E 028°39'0 0.0
2017-Nov-11 09:59N 44°09' E 028°39'0 0.0
2017-Nov-11 09:29N 44°09' E 028°39'0 0.0
2017-Nov-11 08:59N 44°09' E 028°39'0 0.0
2017-Nov-11 08:29N 44°09' E 028°39'0 0.0
2017-Nov-11 07:59N 44°09' E 028°39'0 0.0
2017-Nov-11 07:29N 44°09' E 028°39'0 0.0
2017-Nov-11 06:59N 44°09' E 028°39'0 0.0
2017-Nov-11 06:29N 44°09' E 028°39'0 0.0
2017-Nov-11 05:59N 44°09' E 028°39'0 0.0
2017-Nov-11 05:29N 44°09' E 028°39'0 0.0
2017-Nov-11 04:59N 44°09' E 028°39'0 0.0
2017-Nov-11 04:29N 44°09' E 028°39'0 0.0
2017-Nov-11 03:59N 44°09' E 028°39'0 0.0
2017-Nov-11 03:29N 44°09' E 028°39'0 0.0
2017-Nov-11 02:59N 44°09' E 028°39'0 0.0
2017-Nov-11 02:29N 44°09' E 028°39'0 0.0
2017-Nov-11 01:59N 44°09' E 028°39'0 0.0
2017-Nov-11 01:29N 44°09' E 028°39'0 0.0
2017-Nov-11 00:59N 44°09' E 028°39'0 0.0
2017-Nov-11 00:29N 44°09' E 028°39'0 0.0
2017-Nov-10 23:59N 44°09' E 028°39'0 0.0
2017-Nov-10 23:29N 44°09' E 028°39'0 0.0
2017-Nov-10 22:59N 44°09' E 028°39'0 0.0
2017-Nov-10 22:29N 44°09' E 028°39'0 0.0
2017-Nov-10 21:59N 44°09' E 028°39'0 0.0
2017-Nov-10 21:29N 44°09' E 028°39'0 0.0
2017-Nov-10 20:59N 44°09' E 028°39'0 0.0
2017-Nov-10 20:29N 44°09' E 028°39'0 0.0
2017-Nov-10 19:59N 44°09' E 028°39'0 0.0
2017-Nov-10 19:29N 44°09' E 028°39'0 0.0
2017-Nov-10 18:59N 44°09' E 028°39'0 0.0
2017-Nov-10 18:29N 44°09' E 028°39'0 0.0
2017-Nov-10 17:59N 44°09' E 028°39'0 0.0
2017-Nov-10 17:29N 44°09' E 028°39'0 0.0
2017-Nov-10 16:59N 44°09' E 028°39'0 0.0
2017-Nov-10 16:29N 44°09' E 028°39'0 0.0
2017-Nov-10 15:59N 44°09' E 028°39'0 0.0
2017-Nov-10 15:26N 44°09' E 028°39'0 0.0
2017-Nov-10 14:59N 44°09' E 028°39'0 0.0
2017-Nov-10 14:29N 44°09' E 028°39'0 0.0
2017-Nov-10 13:59N 44°09' E 028°39'0 0.0
2017-Nov-10 13:29N 44°09' E 028°39'0 0.0
2017-Nov-10 12:59N 44°09' E 028°39'0 0.0
2017-Nov-10 12:29N 44°09' E 028°39'0 0.0
2017-Nov-10 11:59N 44°09' E 028°39'0 0.0
2017-Nov-10 11:29N 44°09' E 028°39'0 0.0
2017-Nov-10 10:59N 44°09' E 028°39'0 0.0
2017-Nov-10 10:23N 44°09' E 028°39'0 0.0
2017-Nov-10 09:59N 44°09' E 028°39'0 0.0
2017-Nov-10 09:29N 44°09' E 028°39'0 0.0
2017-Nov-10 08:59N 44°09' E 028°39'0 0.0
2017-Nov-10 08:29N 44°09' E 028°39'0 0.0
2017-Nov-10 07:59N 44°09' E 028°39'0 0.0
2017-Nov-10 07:29N 44°09' E 028°39'0 0.0
2017-Nov-10 06:59N 44°09' E 028°39'0 0.0
2017-Nov-10 06:29N 44°09' E 028°39'0 0.0
2017-Nov-10 05:59N 44°09' E 028°39'0 0.0
2017-Nov-10 05:29N 44°09' E 028°39'0 0.0
2017-Nov-10 04:59N 44°09' E 028°39'0 0.0
2017-Nov-10 04:29N 44°09' E 028°39'0 0.0
2017-Nov-10 03:59N 44°09' E 028°39'0 0.0
2017-Nov-10 03:29N 44°09' E 028°39'0 0.0
2017-Nov-10 02:59N 44°09' E 028°39'0 0.0
2017-Nov-10 02:26N 44°09' E 028°39'0 0.0
2017-Nov-10 01:59N 44°09' E 028°39'0 0.0
2017-Nov-10 01:29N 44°09' E 028°39'0 0.0
2017-Nov-10 00:59N 44°09' E 028°39'0 0.0
2017-Nov-10 00:29N 44°09' E 028°39'0 0.0
2017-Nov-09 23:59N 44°09' E 028°39'0 0.0
2017-Nov-09 23:29N 44°09' E 028°39'0 0.0
2017-Nov-09 22:59N 44°09' E 028°39'0 0.0
2017-Nov-09 22:29N 44°09' E 028°39'0 0.0
2017-Nov-09 21:59N 44°09' E 028°39'0 0.0
2017-Nov-09 21:29N 44°09' E 028°39'0 0.0
2017-Nov-09 20:59N 44°09' E 028°39'0 0.0
2017-Nov-09 20:29N 44°09' E 028°39'0 0.0
2017-Nov-09 19:59N 44°09' E 028°39'0 0.0
2017-Nov-09 19:29N 44°09' E 028°39'0 0.0
2017-Nov-09 18:59N 44°09' E 028°39'0 0.0
2017-Nov-09 18:29N 44°09' E 028°39'0 0.0
2017-Nov-09 17:59N 44°09' E 028°39'0 0.0
2017-Nov-09 17:29N 44°09' E 028°39'0 0.0
2017-Nov-09 16:59N 44°09' E 028°39'0 0.0
2017-Nov-09 16:29N 44°09' E 028°39'0 0.0
2017-Nov-09 15:59N 44°09' E 028°39'0 0.0
2017-Nov-09 15:29N 44°09' E 028°39'0 0.0
2017-Nov-09 14:59N 44°09' E 028°39'0 0.0
2017-Nov-09 14:29N 44°09' E 028°39'0 0.0
2017-Nov-09 13:59N 44°09' E 028°39'0 0.0
2017-Nov-09 13:29N 44°09' E 028°39'0 0.0
2017-Nov-09 12:59N 44°09' E 028°39'0 0.0
2017-Nov-09 12:29N 44°09' E 028°39'0 0.0
2017-Nov-09 11:59N 44°09' E 028°39'0 0.0
2017-Nov-09 11:29N 44°09' E 028°39'0 0.0
2017-Nov-09 10:59N 44°09' E 028°39'0 0.0
2017-Nov-09 10:29N 44°09' E 028°39'0 0.0
2017-Nov-09 09:59N 44°09' E 028°39'0 0.0
2017-Nov-09 09:29N 44°09' E 028°39'0 0.0
2017-Nov-09 08:59N 44°09' E 028°39'0 0.0
2017-Nov-09 08:29N 44°09' E 028°39'0 0.0
2017-Nov-09 07:59N 44°09' E 028°39'0 0.0
2017-Nov-09 07:29N 44°09' E 028°39'0 0.0
2017-Nov-09 06:59N 44°09' E 028°39'0 0.0
2017-Nov-09 06:29N 44°09' E 028°39'0 0.0
2017-Nov-09 05:59N 44°09' E 028°39'0 0.0
2017-Nov-09 05:29N 44°09' E 028°39'0 0.0
2017-Nov-09 04:59N 44°09' E 028°39'0 0.0
2017-Nov-09 04:29N 44°09' E 028°39'0 0.0
2017-Nov-09 03:59N 44°09' E 028°39'0 0.0
2017-Nov-09 03:29N 44°09' E 028°39'0 0.0
2017-Nov-09 02:59N 44°09' E 028°39'0 0.0
2017-Nov-09 02:29N 44°09' E 028°39'0 0.0
2017-Nov-09 01:59N 44°09' E 028°39'0 0.0
2017-Nov-09 01:29N 44°09' E 028°39'0 0.0
2017-Nov-09 00:59N 44°09' E 028°39'0 0.0
2017-Nov-09 00:29N 44°09' E 028°39'0 0.0
2017-Nov-08 23:59N 44°09' E 028°39'0 0.0
2017-Nov-08 23:29N 44°09' E 028°39'0 0.0
2017-Nov-08 22:59N 44°09' E 028°39'0 0.0
2017-Nov-08 22:29N 44°09' E 028°39'0 0.0
2017-Nov-08 21:59N 44°09' E 028°39'0 0.0
2017-Nov-08 21:29N 44°09' E 028°39'0 0.0
2017-Nov-08 20:59N 44°09' E 028°39'0 0.0
2017-Nov-08 20:29N 44°09' E 028°39'0 0.0
2017-Nov-08 19:59N 44°09' E 028°39'0 0.0
2017-Nov-08 19:29N 44°09' E 028°39'0 0.0
2017-Nov-08 18:59N 44°09' E 028°39'0 0.0
2017-Nov-08 18:29N 44°09' E 028°39'0 0.0
2017-Nov-08 17:59N 44°09' E 028°39'0 0.0
2017-Nov-08 17:26N 44°09' E 028°39'0 0.0
2017-Nov-08 16:59N 44°09' E 028°39'0 0.0
2017-Nov-08 16:29N 44°09' E 028°39'0 0.0
2017-Nov-08 15:59N 44°09' E 028°39'0 0.0
2017-Nov-08 15:29N 44°09' E 028°39'0 0.0
2017-Nov-08 14:59N 44°09' E 028°39'0 0.0
2017-Nov-08 14:29N 44°09' E 028°39'0 0.0
2017-Nov-08 13:59N 44°09' E 028°39'0 0.0
2017-Nov-08 13:29N 44°09' E 028°39'0 0.0
2017-Nov-08 12:59N 44°09' E 028°39'0 0.0
2017-Nov-08 12:29N 44°09' E 028°39'0 0.0
2017-Nov-08 11:59N 44°09' E 028°39'0 0.0
2017-Nov-08 11:29N 44°09' E 028°39'0 0.0
2017-Nov-08 10:59N 44°09' E 028°39'0 0.0
2017-Nov-08 10:29N 44°09' E 028°39'0 0.0
2017-Nov-08 09:59N 44°09' E 028°39'0 0.0
2017-Nov-08 09:29N 44°09' E 028°39'0 0.0
2017-Nov-08 08:58N 44°09' E 028°39'0 0.0
2017-Nov-08 08:28N 44°09' E 028°39'0 0.0
2017-Nov-08 07:58N 44°09' E 028°39'0 0.0
2017-Nov-08 07:28N 44°09' E 028°39'0 0.0
2017-Nov-08 06:55N 44°09' E 028°39'0 0.0
2017-Nov-08 06:28N 44°09' E 028°39'0 0.0
2017-Nov-08 05:58N 44°09' E 028°39'0 0.0
2017-Nov-08 05:28N 44°09' E 028°39'0 0.0
2017-Nov-08 04:58N 44°09' E 028°39'0 0.0
2017-Nov-08 04:28N 44°09' E 028°39'0 0.0
2017-Nov-08 03:58N 44°09' E 028°39'0 0.0
2017-Nov-08 03:28N 44°09' E 028°39'0 0.0
2017-Nov-08 02:58N 44°09' E 028°39'0 0.0
2017-Nov-08 02:28N 44°09' E 028°39'0 0.0
2017-Nov-08 01:58N 44°09' E 028°39'0 0.0
2017-Nov-08 01:22N 44°09' E 028°39'0 0.0
2017-Nov-08 00:58N 44°09' E 028°39'0 0.0
2017-Nov-08 00:28N 44°09' E 028°39'0 0.0
2017-Nov-07 23:55N 44°09' E 028°39'0 0.0
2017-Nov-07 23:28N 44°09' E 028°39'0 0.0
2017-Nov-07 22:55N 44°09' E 028°39'0 0.0
2017-Nov-07 22:28N 44°09' E 028°39'0 0.0
2017-Nov-07 21:58N 44°09' E 028°39'0 0.0
2017-Nov-07 21:28N 44°09' E 028°39'0 0.0
2017-Nov-07 20:58N 44°09' E 028°39'0 0.0
2017-Nov-07 20:28N 44°09' E 028°39'0 0.0
2017-Nov-07 19:58N 44°09' E 028°39'0 0.0
2017-Nov-07 19:28N 44°09' E 028°39'0 0.0
2017-Nov-07 18:58N 44°09' E 028°39'0 0.0
2017-Nov-07 18:28N 44°09' E 028°39'0 0.0
2017-Nov-07 17:58N 44°09' E 028°39'0 0.0
2017-Nov-07 17:28N 44°09' E 028°39'0 0.0
2017-Nov-07 16:58N 44°09' E 028°39'0 0.0
2017-Nov-07 16:28N 44°09' E 028°39'0 0.0
2017-Nov-07 15:58N 44°09' E 028°39'0 0.0
2017-Nov-07 15:25N 44°09' E 028°39'0 0.0
2017-Nov-07 14:58N 44°09' E 028°39'0 0.0
2017-Nov-07 14:28N 44°09' E 028°39'0 0.8
2017-Nov-07 14:00N 44°09' E 028°39'2 3.9
2017-Nov-07 13:31N 44°08' E 028°41'3 5.7
2017-Nov-07 13:00N 44°05' E 028°43'3 5.5
2017-Nov-07 12:31N 44°03' E 028°46'3 6.9
2017-Nov-07 12:00N 44°01' E 028°49'611.6
2017-Nov-07 11:31N 43°55' E 028°52'612.3
2017-Nov-07 11:01N 43°49' E 028°52'612.2
2017-Nov-07 10:31N 43°43' E 028°53'611.9
2017-Nov-07 10:00N 43°37' E 028°54'  

Dump ship's entire track history